Time;durP1;ratioP1;P1;durP2;ratioP2;P2;SDS_P1;SDS_P2;PMS_P1;PMS_P2;Temp;Humidity;BMP_temperature;BMP_pressure;BME280_temperature;BME280_humidity;BME280_pressure;Samples;Min_cycle;Max_cycle;Signal;HPM_P1;HPM_P2
2022/10/24 00:01:51;0.00;0.00;0.62;0.00;0.00;0.62;5.83;1.47;;;28.00;29.30;;;;;;2253403;61;20364;-73
2022/10/24 00:04:38;0.00;0.00;0.62;0.00;0.00;0.62;2.77;1.67;;;28.00;29.40;;;;;;2253643;61;20363;-73
2022/10/24 00:07:24;0.00;0.00;0.62;0.00;0.00;0.62;4.53;2.00;;;27.90;29.30;;;;;;2253241;61;20356;-71
2022/10/24 00:10:12;0.00;0.00;0.62;0.00;0.00;0.62;2.57;1.53;;;27.80;29.40;;;;;;2253618;61;20386;-73
2022/10/24 00:12:57;0.00;0.00;0.62;0.00;0.00;0.62;2.40;1.37;;;27.80;29.50;;;;;;2254218;61;20396;-73
2022/10/24 00:15:45;0.00;0.00;0.62;0.00;0.00;0.62;2.10;1.50;;;27.80;30.00;;;;;;2253047;61;20399;-73
2022/10/24 00:18:31;0.00;0.00;0.62;0.00;0.00;0.62;2.13;1.47;;;27.80;29.60;;;;;;2253860;61;20392;-73
2022/10/24 00:21:16;0.00;0.00;0.62;0.00;0.00;0.62;2.20;1.20;;;27.70;29.60;;;;;;2250345;61;20369;-73
2022/10/24 00:24:01;0.00;0.00;0.62;0.00;0.00;0.62;2.50;1.80;;;27.70;29.70;;;;;;2249078;61;20400;-73
2022/10/24 00:26:46;0.00;0.00;0.62;0.00;0.00;0.62;2.97;1.40;;;27.70;29.70;;;;;;2250060;61;20448;-76
2022/10/24 00:29:31;0.00;0.00;0.62;0.00;0.00;0.62;1.60;1.20;;;27.60;29.60;;;;;;2248867;61;20435;-74
2022/10/24 00:32:16;0.00;0.00;0.62;0.00;0.00;0.62;2.00;1.50;;;27.70;29.70;;;;;;2249606;61;20361;-75
2022/10/24 00:35:02;0.00;0.00;0.62;0.00;0.00;0.62;3.83;2.23;;;27.60;29.70;;;;;;2250018;61;20353;-73
2022/10/24 00:37:48;0.00;0.00;0.62;0.00;0.00;0.62;2.50;1.70;;;27.60;29.70;;;;;;2248738;61;20372;-75
2022/10/24 00:40:33;0.00;0.00;0.62;0.00;0.00;0.62;2.07;1.60;;;27.60;29.70;;;;;;2590259;46;20388;-73
2022/10/24 00:43:21;0.00;0.00;0.62;0.00;0.00;0.62;4.40;2.30;;;27.60;29.70;;;;;;2249168;61;20748;-74
2022/10/24 00:46:06;0.00;0.00;0.62;0.00;0.00;0.62;2.00;1.60;;;27.60;29.70;;;;;;2249163;61;20576;-72
2022/10/24 00:48:53;0.00;0.00;0.62;0.00;0.00;0.62;2.43;1.60;;;27.50;29.70;;;;;;2250014;61;20384;-77
2022/10/24 00:51:41;0.00;0.00;0.62;0.00;0.00;0.62;2.30;1.43;;;27.50;29.70;;;;;;2249084;61;20385;-73
2022/10/24 00:54:26;0.00;0.00;0.62;0.00;0.00;0.62;2.07;1.70;;;27.50;29.80;;;;;;2249716;61;20368;-75
2022/10/24 00:57:21;0.00;0.00;0.62;0.00;0.00;0.62;2.90;1.73;;;27.50;29.80;;;;;;2249466;61;20724;-74
2022/10/24 01:00:10;0.00;0.00;0.62;0.00;0.00;0.62;2.00;1.50;;;27.50;29.80;;;;;;2248176;61;20376;-72
2022/10/24 01:02:57;0.00;0.00;0.62;0.00;0.00;0.62;2.93;1.80;;;27.40;29.80;;;;;;2249915;61;20368;-70
2022/10/24 01:06:04;0.00;0.00;0.62;0.00;0.00;0.62;2.30;1.50;;;27.40;29.80;;;;;;2249235;61;20756;-71
2022/10/24 01:09:02;0.00;0.00;0.62;0.00;0.00;0.62;2.13;1.50;;;27.40;29.90;;;;;;2249565;61;20425;-72
2022/10/24 01:12:00;0.00;0.00;0.62;0.00;0.00;0.62;2.90;1.90;;;27.40;29.90;;;;;;2249573;61;20396;-74
2022/10/24 01:14:53;0.00;0.00;0.62;0.00;0.00;0.62;4.03;1.70;;;27.40;29.90;;;;;;2248769;61;20442;-72
2022/10/24 01:17:48;0.00;0.00;0.62;0.00;0.00;0.62;2.47;1.60;;;27.40;30.00;;;;;;2250249;61;20397;-71
2022/10/24 01:21:03;0.00;0.00;0.62;0.00;0.00;0.62;2.57;1.50;;;27.40;30.00;;;;;;2252069;61;20443;-70
2022/10/24 01:24:22;0.00;0.00;0.62;0.00;0.00;0.62;2.73;1.50;;;27.40;30.00;;;;;;2253915;61;20452;-75
2022/10/24 01:27:39;0.00;0.00;0.62;0.00;0.00;0.62;2.97;1.60;;;27.40;30.00;;;;;;2253870;61;20491;-73
2022/10/24 01:30:28;0.00;0.00;0.62;0.00;0.00;0.62;2.50;1.60;;;27.30;30.00;;;;;;2253374;61;20415;-73
2022/10/24 01:33:21;0.00;0.00;0.62;0.00;0.00;0.62;2.63;1.90;;;27.30;30.00;;;;;;2253945;61;20796;-71
2022/10/24 01:36:12;0.00;0.00;0.62;0.00;0.00;0.62;5.03;1.70;;;27.30;30.00;;;;;;2253131;61;20403;-76
2022/10/24 01:39:02;0.00;0.00;0.62;0.00;0.00;0.62;2.30;1.50;;;27.30;30.10;;;;;;2253635;61;20379;-73
2022/10/24 01:41:47;0.00;0.00;0.62;0.00;0.00;0.62;4.77;2.00;;;27.30;30.10;;;;;;2253582;61;20462;-73
2022/10/24 01:44:38;0.00;0.00;0.62;0.00;0.00;0.62;4.23;1.90;;;27.20;30.20;;;;;;2252776;61;20364;-74
2022/10/24 01:47:29;0.00;0.00;0.62;0.00;0.00;0.62;2.43;1.80;;;27.20;30.20;;;;;;2253675;61;20362;-74
2022/10/24 01:50:17;0.00;0.00;0.62;0.00;0.00;0.62;2.20;1.50;;;27.20;30.20;;;;;;2252877;61;20399;-76
2022/10/24 01:53:03;0.00;0.00;0.62;0.00;0.00;0.62;3.30;1.90;;;27.20;30.30;;;;;;2253255;61;20743;-73
2022/10/24 01:55:49;0.00;0.00;0.62;0.00;0.00;0.62;10.50;2.10;;;27.20;30.30;;;;;;2253970;61;20378;-72
2022/10/24 01:58:33;0.00;0.00;0.62;0.00;0.00;0.62;3.07;1.70;;;27.20;30.40;;;;;;2252571;61;20427;-72
2022/10/24 02:01:23;0.00;0.00;0.62;0.00;0.00;0.62;3.60;2.20;;;27.20;30.40;;;;;;2253308;61;20355;-75
2022/10/24 02:04:11;0.00;0.00;0.62;0.00;0.00;0.62;3.93;1.67;;;27.10;30.40;;;;;;2253580;61;20363;-72
2022/10/24 02:07:00;0.00;0.00;0.62;0.00;0.00;0.62;3.50;2.00;;;27.10;30.40;;;;;;2252878;61;20367;-74
2022/10/24 02:09:49;0.00;0.00;0.62;0.00;0.00;0.62;2.43;1.40;;;27.10;30.50;;;;;;2253672;61;20798;-73
2022/10/24 02:12:38;0.00;0.00;0.62;0.00;0.00;0.62;3.10;1.47;;;27.10;30.60;;;;;;2253173;61;20363;-70
2022/10/24 02:15:28;0.00;0.00;0.62;0.00;0.00;0.62;3.63;1.87;;;27.10;30.60;;;;;;2253337;61;20360;-74
2022/10/24 02:18:13;0.00;0.00;0.62;0.00;0.00;0.62;4.10;1.60;;;27.10;30.60;;;;;;2253565;61;20669;-75
2022/10/24 02:21:12;0.00;0.00;0.62;0.00;0.00;0.62;4.10;1.73;;;27.10;30.60;;;;;;2252810;61;20428;-74
2022/10/24 02:24:04;0.00;0.00;0.62;0.00;0.00;0.62;2.63;1.70;;;27.10;30.60;;;;;;2253269;61;20368;-75
2022/10/24 02:26:54;0.00;0.00;0.62;0.00;0.00;0.62;3.07;1.77;;;27.10;30.70;;;;;;2253139;61;20474;-75
2022/10/24 02:29:46;0.00;0.00;0.62;0.00;0.00;0.62;2.43;1.90;;;27.00;30.70;;;;;;2252893;61;20447;-75
2022/10/24 02:32:34;0.00;0.00;0.62;0.00;0.00;0.62;2.83;2.20;;;27.00;30.70;;;;;;2253774;61;20355;-73
2022/10/24 02:35:25;0.00;0.00;0.62;0.00;0.00;0.62;2.63;1.77;;;27.00;30.80;;;;;;2252962;61;20398;-75
2022/10/24 02:38:16;0.00;0.00;0.62;0.00;0.00;0.62;2.40;1.93;;;27.00;30.80;;;;;;2253280;61;20403;-72
2022/10/24 02:41:07;0.00;0.00;0.62;0.00;0.00;0.62;7.50;2.20;;;27.00;30.90;;;;;;2253560;61;20605;-74
2022/10/24 02:43:54;0.00;0.00;0.62;0.00;0.00;0.62;2.90;1.90;;;27.00;31.00;;;;;;2252341;61;20360;-73
2022/10/24 02:46:40;0.00;0.00;0.62;0.00;0.00;0.62;3.57;1.90;;;26.90;31.10;;;;;;2253498;61;20390;-76
2022/10/24 02:49:25;0.00;0.00;0.62;0.00;0.00;0.62;2.43;1.63;;;26.90;31.10;;;;;;2253045;61;20807;-73
2022/10/24 02:52:11;0.00;0.00;0.62;0.00;0.00;0.62;3.27;1.97;;;26.90;31.10;;;;;;2252923;61;20441;-73
2022/10/24 02:54:57;0.00;0.00;0.62;0.00;0.00;0.62;3.20;1.97;;;26.80;31.00;;;;;;2253470;61;20475;-71
2022/10/24 02:57:41;0.00;0.00;0.62;0.00;0.00;0.62;2.97;1.87;;;26.90;31.90;;;;;;2252818;61;20360;-75
2022/10/24 03:00:26;0.00;0.00;0.62;0.00;0.00;0.62;2.47;1.70;;;26.90;31.30;;;;;;2253622;61;20753;-75
2022/10/24 03:03:11;0.00;0.00;0.62;0.00;0.00;0.62;2.10;1.80;;;26.80;31.30;;;;;;2253355;61;20436;-75
2022/10/24 03:05:55;0.00;0.00;0.62;0.00;0.00;0.62;2.67;2.00;;;26.80;31.20;;;;;;2252152;61;20641;-71
2022/10/24 03:08:40;0.00;0.00;0.62;0.00;0.00;0.62;2.80;1.77;;;26.80;31.20;;;;;;2253410;61;20383;-75
2022/10/24 03:11:27;0.00;0.00;0.62;0.00;0.00;0.62;2.57;1.83;;;26.80;31.20;;;;;;2253055;61;20431;-73
2022/10/24 03:14:11;0.00;0.00;0.62;0.00;0.00;0.62;3.63;2.20;;;26.80;31.20;;;;;;2249731;61;20953;-73
2022/10/24 03:16:56;0.00;0.00;0.62;0.00;0.00;0.62;4.40;2.33;;;26.80;31.20;;;;;;2253439;61;20364;-72
2022/10/24 03:19:41;0.00;0.00;0.62;0.00;0.00;0.62;3.60;2.07;;;26.70;31.20;;;;;;2252782;61;20383;-75
2022/10/24 03:22:26;0.00;0.00;0.62;0.00;0.00;0.62;2.60;1.63;;;26.80;31.20;;;;;;2253170;61;20414;-74
2022/10/24 03:25:11;0.00;0.00;0.62;0.00;0.00;0.62;3.80;2.37;;;26.70;31.20;;;;;;2254098;61;20356;-72
2022/10/24 03:27:57;0.00;0.00;0.62;0.00;0.00;0.62;3.53;1.73;;;26.70;31.20;;;;;;2253013;61;20476;-73
2022/10/24 03:30:41;0.00;0.00;0.62;0.00;0.00;0.62;4.17;2.00;;;26.70;31.20;;;;;;2254114;61;20752;-73
2022/10/24 03:33:26;0.00;0.00;0.62;0.00;0.00;0.62;3.20;2.00;;;26.70;31.80;;;;;;2253908;61;20395;-75
2022/10/24 03:36:11;0.00;0.00;0.62;0.00;0.00;0.62;4.73;1.80;;;26.70;31.20;;;;;;2253379;61;20379;-77
2022/10/24 03:38:55;0.00;0.00;0.62;0.00;0.00;0.62;2.70;2.10;;;26.60;31.10;;;;;;2252302;61;20428;-73
2022/10/24 03:41:40;0.00;0.00;0.62;0.00;0.00;0.62;3.10;1.80;;;26.60;31.10;;;;;;2249775;61;20600;-75
2022/10/24 03:44:26;0.00;0.00;0.62;0.00;0.00;0.62;3.00;1.73;;;26.60;31.10;;;;;;2249855;61;20376;-74
2022/10/24 03:47:11;0.00;0.00;0.62;0.00;0.00;0.62;4.57;1.80;;;26.60;31.10;;;;;;2250120;61;20372;-72
2022/10/24 03:49:56;0.00;0.00;0.62;0.00;0.00;0.62;3.00;1.70;;;26.60;31.10;;;;;;2248941;61;20871;-73
2022/10/24 03:52:40;0.00;0.00;0.62;0.00;0.00;0.62;2.63;1.87;;;26.60;31.10;;;;;;2250167;61;20400;-72
2022/10/24 03:55:25;0.00;0.00;0.62;0.00;0.00;0.62;3.57;2.10;;;26.60;31.10;;;;;;2250177;61;20380;-73
2022/10/24 03:58:10;0.00;0.00;0.62;0.00;0.00;0.62;4.27;2.20;;;26.60;31.10;;;;;;2249240;61;20368;-73
2022/10/24 04:00:57;0.00;0.00;0.62;0.00;0.00;0.62;3.40;1.97;;;26.60;31.10;;;;;;2250132;61;20357;-75
2022/10/24 04:03:43;0.00;0.00;0.62;0.00;0.00;0.62;3.87;2.67;;;26.60;31.10;;;;;;2249864;61;20365;-75
2022/10/24 04:06:28;0.00;0.00;0.62;0.00;0.00;0.62;4.10;2.00;;;26.50;31.10;;;;;;2249712;61;20384;-72
2022/10/24 04:09:12;0.00;0.00;0.62;0.00;0.00;0.62;2.73;1.90;;;26.50;31.10;;;;;;2250064;61;20643;-73
2022/10/24 04:11:57;0.00;0.00;0.62;0.00;0.00;0.62;4.13;1.93;;;26.50;31.10;;;;;;2249017;61;20396;-73
2022/10/24 04:14:42;0.00;0.00;0.62;0.00;0.00;0.62;3.07;1.80;;;26.50;31.30;;;;;;2249708;61;20384;-75
2022/10/24 04:17:28;0.00;0.00;0.62;0.00;0.00;0.62;3.47;1.80;;;26.50;31.30;;;;;;2250091;61;20432;-72
2022/10/24 04:20:18;0.00;0.00;0.62;0.00;0.00;0.62;4.13;2.07;;;26.50;31.30;;;;;;2250664;61;20382;-74
2022/10/24 04:23:03;0.00;0.00;0.62;0.00;0.00;0.62;3.13;2.47;;;26.50;31.20;;;;;;2254049;61;20364;-74
2022/10/24 04:25:47;0.00;0.00;0.62;0.00;0.00;0.62;4.43;2.13;;;26.50;31.40;;;;;;2253588;61;20380;-72
2022/10/24 04:28:32;0.00;0.00;0.62;0.00;0.00;0.62;2.13;1.70;;;26.50;31.50;;;;;;2253426;61;20427;-76
2022/10/24 04:31:16;0.00;0.00;0.62;0.00;0.00;0.62;3.03;2.10;;;26.50;31.50;;;;;;2254062;61;20391;-74
2022/10/24 04:34:04;0.00;0.00;0.62;0.00;0.00;0.62;3.63;2.33;;;26.50;32.20;;;;;;2253176;61;20579;-75
2022/10/24 04:36:49;0.00;0.00;0.62;0.00;0.00;0.62;2.77;2.50;;;26.50;31.50;;;;;;2253995;61;20488;-72
2022/10/24 04:39:34;0.00;0.00;0.62;0.00;0.00;0.62;7.33;2.13;;;26.40;31.40;;;;;;2251133;61;20436;-74
2022/10/24 04:42:18;0.00;0.00;0.62;0.00;0.00;0.62;4.20;2.80;;;26.40;31.50;;;;;;2249219;61;20470;-72
2022/10/24 04:45:04;0.00;0.00;0.62;0.00;0.00;0.62;2.97;1.97;;;26.40;31.50;;;;;;2249945;61;20364;-72
2022/10/24 04:47:49;0.00;0.00;0.62;0.00;0.00;0.62;4.40;2.60;;;26.40;31.60;;;;;;2249433;61;20383;-74
2022/10/24 04:50:38;0.00;0.00;0.62;0.00;0.00;0.62;3.40;2.10;;;26.40;31.50;;;;;;2249293;61;20428;-72
2022/10/24 04:53:22;0.00;0.00;0.62;0.00;0.00;0.62;4.77;2.70;;;26.40;32.20;;;;;;2249829;61;20361;-76
2022/10/24 04:56:07;0.00;0.00;0.62;0.00;0.00;0.62;3.00;2.50;;;26.40;31.60;;;;;;2249202;61;20364;-73
2022/10/24 04:58:52;0.00;0.00;0.62;0.00;0.00;0.62;5.80;2.17;;;26.30;31.60;;;;;;2249970;61;20461;-74
2022/10/24 05:01:37;0.00;0.00;0.62;0.00;0.00;0.62;2.23;1.80;;;26.40;31.70;;;;;;2249976;61;20420;-74
2022/10/24 05:04:21;0.00;0.00;0.62;0.00;0.00;0.62;3.50;1.87;;;26.40;31.70;;;;;;2248736;61;20442;-75
2022/10/24 05:07:07;0.00;0.00;0.62;0.00;0.00;0.62;5.97;2.30;;;26.30;32.30;;;;;;2249980;61;20365;-72
2022/10/24 05:09:52;0.00;0.00;0.62;0.00;0.00;0.62;5.47;1.90;;;26.40;31.60;;;;;;2249694;61;20380;-73
2022/10/24 05:12:37;0.00;0.00;0.62;0.00;0.00;0.62;4.60;2.23;;;26.40;31.60;;;;;;2249062;61;20372;-72
2022/10/24 05:15:22;0.00;0.00;0.62;0.00;0.00;0.62;3.90;1.93;;;26.30;31.70;;;;;;2249397;61;20461;-70
2022/10/24 05:18:07;0.00;0.00;0.62;0.00;0.00;0.62;8.13;2.37;;;26.30;31.70;;;;;;2250103;61;20375;-72
2022/10/24 05:20:55;0.00;0.00;0.62;0.00;0.00;0.62;3.70;2.20;;;26.30;31.60;;;;;;2252634;61;20367;-73
2022/10/24 05:23:43;0.00;0.00;0.62;0.00;0.00;0.62;2.33;1.60;;;26.30;31.60;;;;;;2254490;61;20391;-75
2022/10/24 05:26:30;0.00;0.00;0.62;0.00;0.00;0.62;3.03;2.17;;;26.30;31.60;;;;;;2254372;61;20710;-72
2022/10/24 05:29:15;0.00;0.00;0.62;0.00;0.00;0.62;3.73;2.47;;;26.30;31.60;;;;;;2253459;61;20767;-73
2022/10/24 05:31:59;0.00;0.00;0.62;0.00;0.00;0.62;3.67;2.17;;;26.30;31.60;;;;;;2253756;61;20450;-74
2022/10/24 05:34:44;0.00;0.00;0.62;0.00;0.00;0.62;4.03;1.97;;;26.40;31.60;;;;;;2253745;61;20395;-77
2022/10/24 05:37:29;0.00;0.00;0.62;0.00;0.00;0.62;4.13;2.43;;;26.40;32.30;;;;;;2254085;61;20403;-72
2022/10/24 05:40:15;0.00;0.00;0.62;0.00;0.00;0.62;3.80;2.00;;;26.40;31.70;;;;;;2252947;61;20391;-68
2022/10/24 05:43:00;0.00;0.00;0.62;0.00;0.00;0.62;4.17;2.30;;;26.30;31.60;;;;;;2252761;61;20479;-73
2022/10/24 05:45:47;0.00;0.00;0.62;0.00;0.00;0.62;2.80;2.03;;;26.30;31.70;;;;;;2253138;61;20372;-73
2022/10/24 05:48:33;0.00;0.00;0.62;0.00;0.00;0.62;3.00;2.00;;;26.30;31.70;;;;;;2252749;61;20443;-70
2022/10/24 05:51:18;0.00;0.00;0.62;0.00;0.00;0.62;5.00;2.00;;;26.30;31.70;;;;;;2253195;61;20407;-74
2022/10/24 05:54:02;0.00;0.00;0.62;0.00;0.00;0.62;4.37;2.13;;;26.30;31.70;;;;;;2253374;61;20359;-76
2022/10/24 05:56:49;0.00;0.00;0.62;0.00;0.00;0.62;2.80;2.10;;;26.30;31.70;;;;;;2253532;61;20352;-72
2022/10/24 05:59:34;0.00;0.00;0.62;0.00;0.00;0.62;4.20;2.43;;;26.40;31.70;;;;;;2487100;53;20589;-73
2022/10/24 06:02:20;0.00;0.00;0.62;0.00;0.00;0.62;3.60;2.17;;;26.40;31.70;;;;;;2249845;61;20379;-71
2022/10/24 06:05:07;0.00;0.00;0.62;0.00;0.00;0.62;4.23;2.57;;;26.40;31.80;;;;;;2253556;61;20380;-70
2022/10/24 06:07:52;0.00;0.00;0.62;0.00;0.00;0.62;3.60;2.37;;;26.40;31.80;;;;;;2253251;61;20423;-71
2022/10/24 06:10:37;0.00;0.00;0.62;0.00;0.00;0.62;3.80;2.90;;;26.40;31.80;;;;;;2255019;61;20466;-71
2022/10/24 06:13:23;0.00;0.00;0.62;0.00;0.00;0.62;2.97;2.50;;;26.40;31.80;;;;;;2253412;61;20363;-73
2022/10/24 06:16:08;0.00;0.00;0.62;0.00;0.00;0.62;4.60;2.17;;;26.40;31.80;;;;;;2253277;61;20472;-74
2022/10/24 06:18:53;0.00;0.00;0.62;0.00;0.00;0.62;4.77;2.53;;;26.40;31.80;;;;;;2252747;61;20645;-73
2022/10/24 06:21:38;0.00;0.00;0.62;0.00;0.00;0.62;4.27;2.80;;;26.40;31.70;;;;;;2253446;61;20479;-75
2022/10/24 06:24:23;0.00;0.00;0.62;0.00;0.00;0.62;3.60;2.33;;;26.40;31.70;;;;;;2253050;61;20351;-70
2022/10/24 06:27:07;0.00;0.00;0.62;0.00;0.00;0.62;7.40;2.47;;;26.40;31.70;;;;;;2253086;61;20367;-74
2022/10/24 06:29:53;0.00;0.00;0.62;0.00;0.00;0.62;3.83;2.37;;;26.50;31.70;;;;;;2253461;61;20418;-76
2022/10/24 06:32:39;0.00;0.00;0.62;0.00;0.00;0.62;2.90;2.20;;;26.50;31.70;;;;;;2248727;61;20810;-74
2022/10/24 06:35:24;0.00;0.00;0.62;0.00;0.00;0.62;2.90;1.90;;;26.50;31.70;;;;;;2249091;61;20364;-75
2022/10/24 06:38:08;0.00;0.00;0.62;0.00;0.00;0.62;3.40;2.13;;;26.50;31.70;;;;;;2249470;61;20364;-72
2022/10/24 06:40:53;0.00;0.00;0.62;0.00;0.00;0.62;2.97;2.10;;;26.50;31.60;;;;;;2252899;61;20356;-73
2022/10/24 06:43:40;0.00;0.00;0.62;0.00;0.00;0.62;2.90;1.70;;;26.50;31.60;;;;;;2255593;61;20359;-71
2022/10/24 06:46:26;0.00;0.00;0.62;0.00;0.00;0.62;3.70;1.90;;;26.50;31.60;;;;;;2253058;61;20724;-77
2022/10/24 06:49:12;0.00;0.00;0.62;0.00;0.00;0.62;5.27;2.30;;;26.50;31.60;;;;;;2253114;61;20415;-73
2022/10/24 06:51:57;0.00;0.00;0.62;0.00;0.00;0.62;2.87;2.20;;;26.50;31.60;;;;;;2252909;61;20395;-69
2022/10/24 06:54:42;0.00;0.00;0.62;0.00;0.00;0.62;4.07;2.60;;;26.60;31.60;;;;;;2252590;61;20415;-69
2022/10/24 06:57:27;0.00;0.00;0.62;0.00;0.00;0.62;4.60;1.80;;;26.60;31.60;;;;;;2253284;61;20383;-70
2022/10/24 07:00:13;0.00;0.00;0.62;0.00;0.00;0.62;2.50;2.03;;;26.60;31.60;;;;;;2253966;61;20398;-69
2022/10/24 07:02:59;0.00;0.00;0.62;0.00;0.00;0.62;3.37;1.67;;;26.60;31.60;;;;;;2253639;61;20735;-74
2022/10/24 07:05:43;0.00;0.00;0.62;0.00;0.00;0.62;3.17;2.10;;;26.60;31.50;;;;;;2254147;61;20624;-74
2022/10/24 07:08:28;0.00;0.00;0.62;0.00;0.00;0.62;3.93;1.93;;;26.60;31.50;;;;;;2253764;61;20456;-72
2022/10/24 07:11:13;0.00;0.00;0.62;0.00;0.00;0.62;3.60;2.23;;;26.60;31.50;;;;;;2253765;61;20435;-68
2022/10/24 07:13:57;0.00;0.00;0.62;0.00;0.00;0.62;4.93;2.40;;;26.60;31.50;;;;;;2253838;61;20754;-72
2022/10/24 07:16:42;0.00;0.00;0.62;0.00;0.00;0.62;4.20;2.67;;;26.70;31.50;;;;;;2253226;61;20433;-75
2022/10/24 07:19:28;0.00;0.00;0.62;0.00;0.00;0.62;3.87;2.60;;;26.70;31.50;;;;;;2253704;61;20395;-72
2022/10/24 07:22:12;0.00;0.00;0.62;0.00;0.00;0.62;4.07;2.30;;;26.70;31.50;;;;;;2254049;61;20359;-72
2022/10/24 07:24:57;0.00;0.00;0.62;0.00;0.00;0.62;3.73;2.50;;;26.60;31.50;;;;;;2253159;61;20375;-70
2022/10/24 07:27:46;0.00;0.00;0.62;0.00;0.00;0.62;5.03;3.17;;;26.70;31.60;;;;;;2253528;61;20403;-73
2022/10/24 07:30:31;0.00;0.00;0.62;0.00;0.00;0.62;4.27;3.10;;;26.70;32.20;;;;;;2253466;61;20689;-74
2022/10/24 07:33:17;0.00;0.00;0.62;0.00;0.00;0.62;5.90;3.10;;;26.70;31.60;;;;;;2253703;61;20447;-75
2022/10/24 07:36:04;0.00;0.00;0.62;0.00;0.00;0.62;3.93;2.77;;;26.70;32.20;;;;;;2253878;61;20398;-75
2022/10/24 07:38:52;0.00;0.00;0.62;0.00;0.00;0.62;3.27;2.70;;;26.70;31.50;;;;;;2250876;61;20400;-73
2022/10/24 07:41:40;0.00;0.00;0.62;0.00;0.00;0.62;6.13;3.13;;;26.70;31.50;;;;;;2249907;61;20776;-75
2022/10/24 07:44:25;0.00;0.00;0.62;0.00;0.00;0.62;7.20;3.90;;;26.70;31.60;;;;;;2249537;61;20377;-75
2022/10/24 07:47:10;0.00;0.00;0.62;0.00;0.00;0.62;5.87;3.83;;;26.80;31.60;;;;;;2249029;61;20396;-75
2022/10/24 07:49:55;0.00;0.00;0.62;0.00;0.00;0.62;6.40;4.20;;;26.80;31.70;;;;;;2249322;61;20568;-72
2022/10/24 07:52:41;0.00;0.00;0.62;0.00;0.00;0.62;7.90;4.10;;;26.80;31.60;;;;;;2249349;61;20396;-71
2022/10/24 07:55:26;0.00;0.00;0.62;0.00;0.00;0.62;9.67;6.03;;;26.80;31.60;;;;;;2249453;61;20371;-74
2022/10/24 07:58:12;0.00;0.00;0.62;0.00;0.00;0.62;8.40;4.87;;;26.80;31.60;;;;;;2251636;61;20372;-72
2022/10/24 08:01:03;0.00;0.00;0.62;0.00;0.00;0.62;9.93;4.53;;;26.80;31.60;;;;;;2253284;61;20372;-75
2022/10/24 08:03:48;0.00;0.00;0.62;0.00;0.00;0.62;7.40;4.60;;;26.80;31.70;;;;;;2253762;61;20618;-76
2022/10/24 08:06:34;0.00;0.00;0.62;0.00;0.00;0.62;7.83;4.50;;;26.80;32.30;;;;;;2253794;61;20364;-72
2022/10/24 08:09:20;0.00;0.00;0.62;0.00;0.00;0.62;6.37;4.17;;;26.80;31.70;;;;;;2253255;61;20391;-72
2022/10/24 08:12:05;0.00;0.00;0.62;0.00;0.00;0.62;5.80;4.10;;;26.80;31.60;;;;;;2253858;61;20507;-74
2022/10/24 08:14:51;0.00;0.00;0.62;0.00;0.00;0.62;5.97;4.03;;;26.80;31.60;;;;;;2253574;61;20384;-72
2022/10/24 08:17:35;0.00;0.00;0.62;0.00;0.00;0.62;6.73;3.53;;;26.90;31.70;;;;;;2253057;61;20425;-73
2022/10/24 08:20:22;0.00;0.00;0.62;0.00;0.00;0.62;6.97;3.87;;;26.90;31.70;;;;;;2253607;61;20380;-72
2022/10/24 08:23:07;0.00;0.00;0.62;0.00;0.00;0.62;5.40;3.73;;;26.90;31.60;;;;;;2253283;61;20731;-74
2022/10/24 08:26:02;0.00;0.00;0.62;0.00;0.00;0.62;5.20;3.73;;;26.90;31.60;;;;;;2253067;61;20368;-74
2022/10/24 08:28:48;0.00;0.00;0.62;0.00;0.00;0.62;6.87;3.73;;;26.90;31.50;;;;;;2253678;61;20478;-75
2022/10/24 08:31:34;0.00;0.00;0.62;0.00;0.00;0.62;5.93;3.30;;;26.90;31.40;;;;;;2252827;61;20420;-74
2022/10/24 08:34:21;0.00;0.00;0.62;0.00;0.00;0.62;4.10;2.70;;;26.90;31.40;;;;;;2253731;61;20372;-74
2022/10/24 08:37:05;0.00;0.00;0.62;0.00;0.00;0.62;4.30;3.23;;;27.00;31.50;;;;;;2252642;61;20368;-74
2022/10/24 08:39:54;0.00;0.00;0.62;0.00;0.00;0.62;6.60;3.07;;;27.00;31.50;;;;;;2253211;61;20430;-74
2022/10/24 08:42:40;0.00;0.00;0.62;0.00;0.00;0.62;7.50;3.00;;;27.00;31.40;;;;;;2253592;61;20356;-76
2022/10/24 08:45:31;0.00;0.00;0.62;0.00;0.00;0.62;5.80;3.60;;;27.10;31.40;;;;;;2253242;61;20486;-71
2022/10/24 08:48:26;0.00;0.00;0.62;0.00;0.00;0.62;5.47;3.40;;;27.10;31.40;;;;;;2253301;61;20748;-72
2022/10/24 08:51:33;0.00;0.00;0.62;0.00;0.00;0.62;4.07;3.27;;;27.10;31.40;;;;;;2250533;61;20447;-71
2022/10/24 08:54:22;0.00;0.00;0.62;0.00;0.00;0.62;3.60;2.93;;;27.20;31.50;;;;;;2253618;61;20364;-72
2022/10/24 08:57:18;0.00;0.00;0.62;0.00;0.00;0.62;5.97;3.17;;;27.20;31.60;;;;;;2253466;61;20436;-70
2022/10/24 09:00:15;0.00;0.00;0.62;0.00;0.00;0.62;5.30;3.03;;;27.20;31.60;;;;;;2252820;61;20661;-70
2022/10/24 09:03:09;0.00;0.00;0.62;0.00;0.00;0.62;4.40;3.13;;;27.20;31.50;;;;;;2253088;61;20407;-73
2022/10/24 09:05:58;0.00;0.00;0.62;0.00;0.00;0.62;4.20;2.80;;;27.30;31.60;;;;;;2253240;61;20371;-73
2022/10/24 09:08:51;0.00;0.00;0.62;0.00;0.00;0.62;3.73;2.87;;;27.30;31.60;;;;;;2253012;61;20407;-73
2022/10/24 09:11:45;0.00;0.00;0.62;0.00;0.00;0.62;3.90;2.73;;;27.30;32.30;;;;;;2253189;61;20388;-72
2022/10/24 09:14:32;0.00;0.00;0.62;0.00;0.00;0.62;4.73;2.70;;;27.40;31.70;;;;;;2253296;61;20355;-72
2022/10/24 09:17:22;0.00;0.00;0.62;0.00;0.00;0.62;4.47;2.67;;;27.40;31.70;;;;;;2253415;61;20767;-71
2022/10/24 09:20:22;0.00;0.00;0.62;0.00;0.00;0.62;3.40;2.43;;;27.40;31.70;;;;;;2253289;61;20400;-71
2022/10/24 09:23:06;0.00;0.00;0.62;0.00;0.00;0.62;5.43;2.70;;;27.40;31.70;;;;;;2252954;61;20696;-70
2022/10/24 09:25:55;0.00;0.00;0.62;0.00;0.00;0.62;4.40;3.00;;;27.50;31.70;;;;;;2253556;61;20395;-73
2022/10/24 09:28:41;0.00;0.00;0.62;0.00;0.00;0.62;3.63;2.13;;;27.50;31.50;;;;;;2253115;61;20452;-74
2022/10/24 09:31:27;0.00;0.00;0.62;0.00;0.00;0.62;3.77;2.67;;;27.50;31.50;;;;;;2252828;61;20703;-73
2022/10/24 09:34:13;0.00;0.00;0.62;0.00;0.00;0.62;3.07;2.37;;;27.50;31.50;;;;;;2253617;61;20364;-73
2022/10/24 09:36:57;0.00;0.00;0.62;0.00;0.00;0.62;3.70;2.40;;;27.60;31.50;;;;;;2252848;61;20411;-69
2022/10/24 09:39:42;0.00;0.00;0.62;0.00;0.00;0.62;4.30;2.50;;;27.60;31.40;;;;;;2253531;61;20739;-71
2022/10/24 09:42:27;0.00;0.00;0.62;0.00;0.00;0.62;5.27;2.23;;;27.60;31.40;;;;;;2253532;61;20340;-73
2022/10/24 09:45:33;0.00;0.00;0.62;0.00;0.00;0.62;6.17;2.50;;;27.60;31.40;;;;;;2252741;61;20367;-74
2022/10/24 09:48:23;0.00;0.00;0.62;0.00;0.00;0.62;3.20;2.07;;;27.70;31.40;;;;;;2251298;61;20484;-72
2022/10/24 09:51:18;0.00;0.00;0.62;0.00;0.00;0.62;3.80;2.30;;;27.70;31.40;;;;;;2249240;61;20400;-72
2022/10/24 09:54:23;0.00;0.00;0.62;0.00;0.00;0.62;3.43;2.10;;;27.70;31.30;;;;;;2249419;61;20372;-73
2022/10/24 09:57:16;0.00;0.00;0.62;0.00;0.00;0.62;2.63;1.93;;;27.70;31.30;;;;;;2249597;61;20357;-69
2022/10/24 10:00:02;0.00;0.00;0.62;0.00;0.00;0.62;3.17;2.30;;;27.80;31.30;;;;;;2252940;61;20387;-74
2022/10/24 10:03:00;0.00;0.00;0.62;0.00;0.00;0.62;3.63;2.17;;;27.80;31.30;;;;;;2253524;61;20356;-75
2022/10/24 10:05:47;0.00;0.00;0.62;0.00;0.00;0.62;4.20;2.30;;;27.80;31.40;;;;;;2252946;61;20759;-72
2022/10/24 10:08:35;0.00;0.00;0.62;0.00;0.00;0.62;3.30;2.17;;;27.80;31.40;;;;;;2252819;61;20431;-74
2022/10/24 10:11:25;0.00;0.00;0.62;0.00;0.00;0.62;2.30;1.90;;;27.90;31.50;;;;;;2253545;61;20607;-71
2022/10/24 10:14:22;0.00;0.00;0.62;0.00;0.00;0.62;2.83;2.27;;;27.90;31.50;;;;;;2252380;61;21008;-76
2022/10/24 10:17:07;0.00;0.00;0.62;0.00;0.00;0.62;3.17;2.00;;;27.90;31.40;;;;;;2253302;61;20415;-70
2022/10/24 10:19:53;0.00;0.00;0.62;0.00;0.00;0.62;2.50;1.87;;;28.00;31.30;;;;;;2253391;61;20403;-70
2022/10/24 10:22:38;0.00;0.00;0.62;0.00;0.00;0.62;3.93;2.33;;;28.00;32.00;;;;;;2252714;61;20692;-72
2022/10/24 10:25:31;0.00;0.00;0.62;0.00;0.00;0.62;2.60;1.70;;;28.00;31.30;;;;;;2253664;61;20731;-72
2022/10/24 10:28:21;0.00;0.00;0.62;0.00;0.00;0.62;3.77;2.40;;;28.00;31.20;;;;;;2252895;61;20383;-73
2022/10/24 10:31:09;0.00;0.00;0.62;0.00;0.00;0.62;2.27;1.50;;;28.00;31.20;;;;;;2253395;61;20387;-76
2022/10/24 10:34:14;0.00;0.00;0.62;0.00;0.00;0.62;2.97;1.80;;;28.10;31.10;;;;;;2253969;61;20360;-71
2022/10/24 10:37:24;0.00;0.00;0.62;0.00;0.00;0.62;2.83;1.83;;;28.10;31.10;;;;;;2255915;61;20471;-70
2022/10/24 10:40:24;0.00;0.00;0.62;0.00;0.00;0.62;3.13;2.07;;;28.10;31.10;;;;;;2254013;61;20767;-73
2022/10/24 10:43:30;0.00;0.00;0.62;0.00;0.00;0.62;2.50;1.67;;;28.10;31.00;;;;;;2253591;61;20351;-74
2022/10/24 10:46:23;0.00;0.00;0.62;0.00;0.00;0.62;2.83;1.73;;;28.10;31.00;;;;;;2254294;61;20371;-73
2022/10/24 10:49:18;0.00;0.00;0.62;0.00;0.00;0.62;3.40;1.90;;;28.10;31.00;;;;;;2253806;61;20411;-71
2022/10/24 10:52:10;0.00;0.00;0.62;0.00;0.00;0.62;1.60;1.23;;;28.10;31.00;;;;;;2253463;61;20394;-74
2022/10/24 10:55:23;0.00;0.00;0.62;0.00;0.00;0.62;2.23;1.77;;;28.20;31.00;;;;;;2253185;61;20387;-71
2022/10/24 10:58:24;0.00;0.00;0.62;0.00;0.00;0.62;2.00;1.30;;;28.20;31.00;;;;;;2249612;61;20383;-72
2022/10/24 11:01:21;0.00;0.00;0.62;0.00;0.00;0.62;2.63;1.67;;;28.20;31.00;;;;;;2250172;61;20371;-72
2022/10/24 11:04:18;0.00;0.00;0.62;0.00;0.00;0.62;2.60;1.80;;;28.20;31.00;;;;;;2249819;61;20404;-71